Time;durP1;ratioP1;P1;durP2;ratioP2;P2;SDS_P1;SDS_P2;PMS_P1;PMS_P2;Temp;Humidity;BMP_temperature;BMP_pressure;BME280_temperature;BME280_humidity;BME280_pressure;Samples;Min_cycle;Max_cycle;Signal;HPM_P1;HPM_P2
2021/08/19 00:01:23;;;;;;;0.20;0.20;;;15.30;99.90;;;;;;5012475;28;20022;-74
2021/08/19 00:03:49;;;;;;;0.17;0.17;;;15.30;99.90;;;;;;5010999;28;20498;-74
2021/08/19 00:06:15;;;;;;;0.20;0.20;;;15.30;99.90;;;;;;5012265;28;20545;-74
2021/08/19 00:08:41;;;;;;;0.20;0.20;;;15.30;99.90;;;;;;5011014;28;20025;-74
2021/08/19 00:11:08;;;;;;;0.47;0.40;;;15.30;99.90;;;;;;5011059;28;20029;-74
2021/08/19 00:13:34;;;;;;;1.17;0.30;;;15.30;99.90;;;;;;4994511;28;20445;-74
2021/08/19 00:16:00;;;;;;;0.90;0.68;;;15.30;99.90;;;;;;5012044;28;20026;-73
2021/08/19 00:18:25;;;;;;;0.00;0.00;;;15.30;99.90;;;;;;5013584;28;20033;-73
2021/08/19 00:20:51;;;;;;;10.75;0.73;;;15.40;99.90;;;;;;5018712;28;20026;-74
2021/08/19 00:23:17;;;;;;;0.10;0.10;;;15.30;99.90;;;;;;5018693;28;20121;-74
2021/08/19 00:25:43;;;;;;;0.10;0.10;;;15.20;99.90;;;;;;5017339;28;20030;-74
2021/08/19 00:28:09;;;;;;;0.85;0.30;;;15.10;99.90;;;;;;5017422;28;20393;-74
2021/08/19 00:30:36;;;;;;;0.40;0.40;;;15.10;99.90;;;;;;5017320;28;20025;-74
2021/08/19 00:33:01;;;;;;;0.65;0.20;;;14.90;99.90;;;;;;5017250;28;20030;-74
2021/08/19 00:35:27;;;;;;;0.20;0.20;;;14.80;99.90;;;;;;5018325;28;20076;-74
2021/08/19 00:37:53;;;;;;;0.20;0.20;;;14.80;99.90;;;;;;5017219;28;20026;-74
2021/08/19 00:40:19;;;;;;;0.10;0.10;;;14.90;99.90;;;;;;5017184;28;20403;-74
2021/08/19 00:42:44;;;;;;;0.10;0.10;;;14.90;99.90;;;;;;5018463;28;20022;-74
2021/08/19 00:45:10;;;;;;;0.10;0.10;;;15.00;99.90;;;;;;5018290;28;20026;-74
2021/08/19 00:47:40;;;;;;;0.20;0.20;;;15.10;99.90;;;;;;5018430;28;20026;-74
2021/08/19 00:50:07;;;;;;;0.15;0.15;;;15.00;99.90;;;;;;5017164;28;20038;-74
2021/08/19 00:52:33;;;;;;;0.10;0.10;;;15.10;99.90;;;;;;5017101;28;20034;-74
2021/08/19 00:55:00;;;;;;;0.20;0.20;;;15.20;99.90;;;;;;5018357;28;20036;-74
2021/08/19 00:57:26;;;;;;;0.20;0.20;;;15.30;99.90;;;;;;5018348;28;20026;-74
2021/08/19 00:59:52;;;;;;;0.85;0.30;;;15.20;99.90;;;;;;5017006;28;20084;-74
2021/08/19 01:02:20;;;;;;;0.20;0.20;;;15.10;99.90;;;;;;5017048;28;20540;-74
2021/08/19 01:04:46;;;;;;;0.20;0.20;;;15.00;99.90;;;;;;5016921;28;20030;-74
2021/08/19 01:07:12;;;;;;;0.75;0.75;;;15.00;99.90;;;;;;5018196;28;20548;-74
2021/08/19 01:09:40;;;;;;;2.05;0.30;;;15.10;99.90;;;;;;5016932;28;20520;-74
2021/08/19 01:12:08;;;;;;;1.50;0.90;;;15.00;99.90;;;;;;5016918;28;20478;-74
2021/08/19 01:14:34;;;;;;;1.67;0.50;;;14.80;99.90;;;;;;5018087;28;20029;-74
2021/08/19 01:17:13;;;;;;;0.20;0.20;;;14.60;99.90;;;;;;5018097;28;20029;-74
2021/08/19 01:19:40;;;;;;;0.15;0.15;;;14.60;99.90;;;;;;5016930;28;20581;-73
2021/08/19 01:22:06;;;;;;;0.20;0.20;;;14.60;99.90;;;;;;5018175;28;20083;-74
2021/08/19 01:24:32;;;;;;;0.20;0.20;;;14.80;99.90;;;;;;5018007;28;20160;-74
2021/08/19 01:26:58;;;;;;;0.55;0.55;;;14.90;99.90;;;;;;5016854;28;20030;-74
2021/08/19 01:29:24;;;;;;;0.17;0.17;;;15.00;99.90;;;;;;5015500;28;20088;-74
2021/08/19 01:32:02;;;;;;;0.20;0.20;;;15.10;99.90;;;;;;5013596;28;20034;-74
2021/08/19 01:34:28;;;;;;;0.10;0.10;;;15.10;99.90;;;;;;5013651;28;20048;-74
2021/08/19 01:36:54;;;;;;;0.13;0.13;;;15.30;99.90;;;;;;5013636;28;20030;-74
2021/08/19 01:39:20;;;;;;;0.10;0.10;;;15.30;99.90;;;;;;5014866;28;20029;-74
2021/08/19 01:41:46;;;;;;;0.35;0.25;;;15.20;99.90;;;;;;5013689;28;20030;-74
2021/08/19 01:44:12;;;;;;;0.30;0.30;;;15.20;99.90;;;;;;4997130;28;20025;-74
2021/08/19 01:46:38;;;;;;;0.57;0.55;;;15.30;99.90;;;;;;5013441;28;20030;-74
2021/08/19 01:49:03;;;;;;;0.10;0.10;;;15.30;99.90;;;;;;4996921;28;20584;-74
2021/08/19 01:51:29;;;;;;;0.20;0.20;;;15.40;99.90;;;;;;5014651;28;20084;-74
2021/08/19 01:53:55;;;;;;;0.10;0.10;;;15.40;99.90;;;;;;5014654;28;20028;-74
2021/08/19 01:56:24;;;;;;;0.10;0.10;;;15.30;99.90;;;;;;5013265;28;20485;-74
2021/08/19 01:58:56;;;;;;;0.10;0.10;;;15.40;99.90;;;;;;5014520;28;20021;-74
2021/08/19 02:01:24;;;;;;;0.20;0.20;;;15.50;99.90;;;;;;5013119;28;20045;-74
2021/08/19 02:03:51;;;;;;;0.10;0.10;;;15.40;99.90;;;;;;5014481;28;20022;-74
2021/08/19 02:06:17;;;;;;;0.63;0.63;;;15.40;99.90;;;;;;5014173;28;20034;-74
2021/08/19 02:08:43;;;;;;;0.10;0.10;;;15.30;99.90;;;;;;4996632;28;20117;-74
2021/08/19 02:11:09;;;;;;;0.20;0.20;;;15.30;99.90;;;;;;5014303;28;20148;-74
2021/08/19 02:13:35;;;;;;;0.10;0.10;;;15.30;99.90;;;;;;5012945;28;20034;-74
2021/08/19 02:16:01;;;;;;;0.10;0.10;;;15.30;99.90;;;;;;5012811;28;20057;-74
2021/08/19 02:18:27;;;;;;;0.68;0.32;;;15.20;99.90;;;;;;5014047;28;20057;-74
2021/08/19 02:20:53;;;;;;;0.10;0.10;;;15.00;99.90;;;;;;5014062;28;20021;-74
2021/08/19 02:23:19;;;;;;;0.80;0.70;;;14.90;99.90;;;;;;5013930;28;20029;-74
2021/08/19 02:25:44;;;;;;;0.45;0.45;;;14.90;99.90;;;;;;5014021;28;20025;-74
2021/08/19 02:28:10;;;;;;;0.10;0.10;;;15.00;99.90;;;;;;4996278;28;20547;-74
2021/08/19 02:30:36;;;;;;;0.10;0.10;;;15.00;99.90;;;;;;5012585;28;20045;-74
2021/08/19 02:33:03;;;;;;;0.10;0.10;;;15.20;99.90;;;;;;4996292;28;20482;-74
2021/08/19 02:35:30;;;;;;;0.20;0.20;;;15.30;99.90;;;;;;5012329;28;20025;-74
2021/08/19 02:37:59;;;;;;;0.10;0.10;;;15.30;99.90;;;;;;5013774;28;20022;-74
2021/08/19 02:40:26;;;;;;;0.20;0.20;;;15.40;99.90;;;;;;4996118;28;20033;-74
2021/08/19 02:42:52;;;;;;;0.20;0.20;;;15.50;99.90;;;;;;5011448;28;20148;-74
2021/08/19 02:45:18;;;;;;;0.10;0.10;;;15.50;99.90;;;;;;5013674;28;20108;-74
2021/08/19 02:47:44;;;;;;;0.10;0.10;;;15.40;99.90;;;;;;5012528;28;20088;-74
2021/08/19 02:50:10;;;;;;;0.10;0.10;;;15.40;99.90;;;;;;5012040;28;20429;-74
2021/08/19 02:52:36;;;;;;;0.10;0.10;;;15.50;99.90;;;;;;5013534;28;20053;-74
2021/08/19 02:55:03;;;;;;;0.32;0.32;;;15.40;99.90;;;;;;5013503;28;20068;-74
2021/08/19 02:57:29;;;;;;;0.20;0.20;;;15.40;99.90;;;;;;5013320;28;20117;-74
2021/08/19 02:59:55;;;;;;;0.20;0.20;;;15.40;99.90;;;;;;5013243;28;20057;-74
2021/08/19 03:02:20;;;;;;;0.10;0.10;;;15.50;99.90;;;;;;5012025;28;20030;-74
2021/08/19 03:04:46;;;;;;;0.10;0.10;;;15.60;99.90;;;;;;5013170;28;20022;-74
2021/08/19 03:07:13;;;;;;;0.80;0.57;;;15.50;99.90;;;;;;5011953;28;20026;-74
2021/08/19 03:09:39;;;;;;;0.40;0.40;;;15.50;99.90;;;;;;5013348;28;20060;-74
2021/08/19 03:12:06;;;;;;;0.10;0.10;;;15.50;99.90;;;;;;5013314;28;20026;-74
2021/08/19 03:14:33;;;;;;;0.98;0.52;;;15.50;99.90;;;;;;5012948;28;20029;-75
2021/08/19 03:16:59;;;;;;;0.28;0.22;;;15.60;99.90;;;;;;5013040;28;20433;-74
2021/08/19 03:19:25;;;;;;;0.10;0.10;;;15.40;99.90;;;;;;5011558;28;20022;-74
2021/08/19 03:21:51;;;;;;;0.10;0.10;;;15.40;99.90;;;;;;5011642;28;20037;-74
2021/08/19 03:24:17;;;;;;;0.40;0.40;;;15.40;99.90;;;;;;5012846;28;20022;-74
2021/08/19 03:26:42;;;;;;;0.10;0.10;;;15.30;99.90;;;;;;5012919;28;20026;-74
2021/08/19 03:29:08;;;;;;;0.20;0.20;;;15.30;99.90;;;;;;5012563;28;20053;-74
2021/08/19 03:31:34;;;;;;;0.60;0.60;;;15.30;99.90;;;;;;5011529;28;20032;-74
2021/08/19 03:34:00;;;;;;;0.90;0.90;;;15.30;99.90;;;;;;5011444;28;20492;-74
2021/08/19 03:36:25;;;;;;;0.25;0.25;;;15.20;99.90;;;;;;5012745;28;20109;-74
2021/08/19 03:38:52;;;;;;;0.10;0.10;;;15.20;99.90;;;;;;5012603;28;20474;-74
2021/08/19 03:41:18;;;;;;;1.80;1.50;;;15.30;99.90;;;;;;5011405;28;20026;-74
2021/08/19 03:43:45;;;;;;;0.10;0.10;;;15.20;99.90;;;;;;5011319;28;20032;-74
2021/08/19 03:46:12;;;;;;;1.15;1.05;;;15.30;99.90;;;;;;5011356;28;20033;-74
2021/08/19 03:48:37;;;;;;;1.08;0.50;;;15.30;99.90;;;;;;5011014;28;20037;-74
2021/08/19 03:51:03;;;;;;;0.73;0.40;;;15.20;99.90;;;;;;5011129;28;20390;-74
2021/08/19 03:53:29;;;;;;;0.17;0.17;;;15.20;99.90;;;;;;5012072;28;20029;-74
2021/08/19 03:55:55;;;;;;;0.10;0.10;;;15.30;99.90;;;;;;5011095;28;20366;-74
2021/08/19 03:58:21;;;;;;;3.55;1.60;;;15.30;99.90;;;;;;5012143;28;20456;-74
2021/08/19 04:00:48;;;;;;;0.10;0.10;;;15.30;99.90;;;;;;5011130;28;20030;-74
2021/08/19 04:03:14;;;;;;;0.98;0.93;;;15.40;99.90;;;;;;5012241;28;20393;-74
2021/08/19 04:05:41;;;;;;;0.20;0.20;;;15.20;99.90;;;;;;5012229;28;20049;-74
2021/08/19 04:08:07;;;;;;;0.10;0.10;;;15.20;99.90;;;;;;5010628;28;20398;-74
2021/08/19 04:10:32;;;;;;;0.55;0.38;;;15.20;99.90;;;;;;5010873;28;20026;-74
2021/08/19 04:12:58;;;;;;;0.50;0.50;;;15.20;99.90;;;;;;5011005;28;20022;-74
2021/08/19 04:15:24;;;;;;;0.17;0.17;;;15.20;99.90;;;;;;5012111;28;20026;-74
2021/08/19 04:17:52;;;;;;;0.90;0.90;;;15.30;99.90;;;;;;5012083;28;20018;-74
2021/08/19 04:20:19;;;;;;;0.20;0.20;;;15.40;99.90;;;;;;5010815;28;20058;-74
2021/08/19 04:22:45;;;;;;;0.10;0.10;;;15.40;99.90;;;;;;5010957;28;20022;-75
2021/08/19 04:25:11;;;;;;;0.10;0.10;;;15.40;99.90;;;;;;5010823;28;20375;-75
2021/08/19 04:27:37;;;;;;;0.13;0.13;;;15.60;99.90;;;;;;5012043;28;20033;-74
2021/08/19 04:30:07;;;;;;;0.20;0.20;;;15.80;99.90;;;;;;5012329;28;20026;-74
2021/08/19 04:32:33;;;;;;;0.20;0.20;;;15.90;99.90;;;;;;5011959;28;20056;-74
2021/08/19 04:34:59;;;;;;;0.10;0.10;;;15.90;99.90;;;;;;4994431;28;20032;-74
2021/08/19 04:37:25;;;;;;;0.10;0.10;;;15.90;99.90;;;;;;5011905;28;20038;-74
2021/08/19 04:39:51;;;;;;;0.28;0.28;;;15.90;99.90;;;;;;5011836;28;20026;-74
2021/08/19 04:42:16;;;;;;;0.15;0.15;;;15.90;99.90;;;;;;5010773;28;20470;-74
2021/08/19 04:44:42;;;;;;;0.10;0.10;;;15.90;99.90;;;;;;5011999;28;20075;-74
2021/08/19 04:47:08;;;;;;;0.10;0.10;;;16.00;99.90;;;;;;4994181;28;20022;-74
2021/08/19 04:49:34;;;;;;;0.28;0.28;;;15.90;99.90;;;;;;5011553;28;20452;-73
2021/08/19 04:51:59;;;;;;;0.10;0.10;;;15.90;99.90;;;;;;5010447;28;20041;-75
2021/08/19 04:54:25;;;;;;;0.10;0.10;;;15.90;99.90;;;;;;5010472;28;20201;-77
2021/08/19 04:56:51;;;;;;;0.10;0.10;;;16.00;99.90;;;;;;5011710;28;20026;-75
2021/08/19 04:59:16;;;;;;;0.20;0.20;;;16.10;99.90;;;;;;5010345;28;20014;-75
2021/08/19 05:01:42;;;;;;;0.20;0.20;;;16.00;99.90;;;;;;5011681;28;20033;-75
2021/08/19 05:04:08;;;;;;;0.10;0.10;;;16.00;99.90;;;;;;5011668;28;20022;-74
2021/08/19 05:06:34;;;;;;;0.10;0.10;;;16.00;99.90;;;;;;5013377;28;20472;-74
2021/08/19 05:09:01;;;;;;;0.10;0.10;;;16.00;99.90;;;;;;4997615;28;20465;-74
2021/08/19 05:11:27;;;;;;;0.10;0.10;;;16.00;99.90;;;;;;5015264;28;20022;-74
2021/08/19 05:13:55;;;;;;;0.10;0.10;;;16.10;99.90;;;;;;5015285;28;20076;-74
2021/08/19 05:16:20;;;;;;;0.10;0.10;;;16.00;99.90;;;;;;5015177;28;20104;-74
2021/08/19 05:18:46;;;;;;;0.40;0.40;;;15.90;99.90;;;;;;5014961;28;20534;-74
2021/08/19 05:21:13;;;;;;;0.10;0.10;;;15.90;99.90;;;;;;5015197;28;20033;-74
2021/08/19 05:23:39;;;;;;;0.10;0.10;;;15.90;99.90;;;;;;5013920;28;20030;-74
2021/08/19 05:26:05;;;;;;;0.63;0.63;;;15.90;99.90;;;;;;5013044;28;20132;-74
2021/08/19 05:28:31;;;;;;;0.10;0.10;;;16.00;99.90;;;;;;5011378;28;20113;-74
2021/08/19 05:30:57;;;;;;;0.10;0.10;;;16.10;99.90;;;;;;5012546;28;20041;-74
2021/08/19 05:33:23;;;;;;;0.28;0.28;;;16.10;99.90;;;;;;5014113;28;20433;-74
2021/08/19 05:35:49;;;;;;;0.10;0.10;;;16.10;99.90;;;;;;5013269;28;20444;-73
2021/08/19 05:38:15;;;;;;;0.15;0.15;;;16.20;99.90;;;;;;5013520;28;20038;-73
2021/08/19 05:40:40;;;;;;;0.10;0.10;;;16.20;99.90;;;;;;5013034;28;20017;-74
2021/08/19 05:43:06;;;;;;;0.10;0.10;;;16.20;99.90;;;;;;5014223;28;20022;-74
2021/08/19 05:45:35;;;;;;;0.10;0.10;;;16.30;99.90;;;;;;5014968;28;20041;-74
2021/08/19 05:48:01;;;;;;;0.20;0.20;;;16.40;99.90;;;;;;5014098;28;20029;-74
2021/08/19 05:50:31;;;;;;;0.10;0.10;;;16.30;99.90;;;;;;5012198;28;20030;-75
2021/08/19 05:52:57;;;;;;;0.10;0.10;;;16.40;99.90;;;;;;5012345;28;20026;-74
2021/08/19 05:55:22;;;;;;;0.10;0.10;;;16.50;99.90;;;;;;5013646;28;20022;-74
2021/08/19 05:57:50;;;;;;;0.20;0.20;;;16.50;99.90;;;;;;5011815;28;20026;-74
2021/08/19 06:00:20;;;;;;;0.10;0.10;;;16.40;99.90;;;;;;5012029;28;20018;-74
2021/08/19 06:02:46;;;;;;;1.75;1.65;;;16.40;99.90;;;;;;5011022;28;20049;-73
2021/08/19 06:05:12;;;;;;;0.43;0.43;;;16.40;99.90;;;;;;5016222;28;20026;-74
2021/08/19 06:07:38;;;;;;;0.20;0.20;;;16.40;99.90;;;;;;5011467;28;20052;-74
2021/08/19 06:10:04;;;;;;;0.80;0.30;;;16.40;99.90;;;;;;5011717;28;20034;-73
2021/08/19 06:12:30;;;;;;;2.75;1.77;;;16.50;99.90;;;;;;5012926;28;20045;-75
2021/08/19 06:14:55;;;;;;;0.50;0.40;;;16.50;99.90;;;;;;5011672;28;20030;-73
2021/08/19 06:17:21;;;;;;;0.10;0.10;;;16.50;99.90;;;;;;5009978;28;20121;-75
2021/08/19 06:19:47;;;;;;;0.10;0.10;;;16.50;99.90;;;;;;4994383;28;20026;-74
2021/08/19 06:22:13;;;;;;;3.65;1.17;;;16.60;99.90;;;;;;5009709;28;20022;-74
2021/08/19 06:24:38;;;;;;;0.10;0.10;;;16.60;99.90;;;;;;5011602;28;20033;-74
2021/08/19 06:27:04;;;;;;;0.10;0.10;;;16.60;99.90;;;;;;5010982;28;20026;-74
2021/08/19 06:29:30;;;;;;;0.10;0.10;;;16.60;99.90;;;;;;5010951;28;20029;-74
2021/08/19 06:31:56;;;;;;;0.10;0.10;;;16.50;99.90;;;;;;5012225;28;20026;-74
2021/08/19 06:34:21;;;;;;;0.10;0.10;;;16.50;99.90;;;;;;5012826;28;20022;-73
2021/08/19 06:36:47;;;;;;;0.10;0.10;;;16.50;99.90;;;;;;5010967;28;20037;-74
2021/08/19 06:39:13;;;;;;;0.17;0.17;;;16.50;99.90;;;;;;5012538;28;20026;-74
2021/08/19 06:41:39;;;;;;;0.10;0.10;;;16.70;99.90;;;;;;5012835;28;20501;-73
2021/08/19 06:44:05;;;;;;;0.10;0.10;;;16.70;99.90;;;;;;5010788;28;20021;-73
2021/08/19 06:46:31;;;;;;;0.10;0.10;;;16.80;99.90;;;;;;5012599;28;20421;-74
2021/08/19 06:48:57;;;;;;;0.20;0.20;;;17.00;99.90;;;;;;4994309;28;20029;-74
2021/08/19 06:51:23;;;;;;;0.10;0.10;;;17.10;99.90;;;;;;5011178;28;20505;-73
2021/08/19 06:53:49;;;;;;;0.45;0.45;;;17.10;99.90;;;;;;5010554;28;20149;-73
2021/08/19 06:56:14;;;;;;;0.10;0.10;;;17.10;99.90;;;;;;5010953;28;20109;-74
2021/08/19 06:58:40;;;;;;;0.68;0.60;;;17.20;99.90;;;;;;5010262;28;20061;-74
2021/08/19 07:01:06;;;;;;;1.13;0.65;;;17.20;99.90;;;;;;5012208;28;20059;-75
2021/08/19 07:03:32;;;;;;;0.52;0.52;;;17.20;99.90;;;;;;5010564;28;20025;-74
2021/08/19 07:05:58;;;;;;;0.10;0.10;;;17.20;99.90;;;;;;5011815;28;20169;-74
2021/08/19 07:08:24;;;;;;;0.40;0.40;;;17.20;99.90;;;;;;5011739;28;20029;-74
2021/08/19 07:10:50;;;;;;;3.30;3.05;;;17.20;99.90;;;;;;5014369;28;20429;-74
2021/08/19 07:13:15;;;;;;;0.35;0.35;;;17.20;99.90;;;;;;5011538;28;20111;-74
2021/08/19 07:15:42;;;;;;;0.10;0.10;;;17.30;99.90;;;;;;5012181;28;20109;-74
2021/08/19 07:18:08;;;;;;;0.20;0.20;;;17.50;99.90;;;;;;4993700;28;20018;-74
2021/08/19 07:20:34;;;;;;;0.20;0.20;;;17.60;99.90;;;;;;5009225;28;20101;-74
2021/08/19 07:23:00;;;;;;;7.22;1.80;;;17.60;99.90;;;;;;5009004;28;20106;-74
2021/08/19 07:25:26;;;;;;;6.97;2.65;;;17.50;99.90;;;;;;5009952;28;20019;-75
2021/08/19 07:27:52;;;;;;;0.10;0.10;;;17.50;99.90;;;;;;5008519;28;20057;-75
2021/08/19 07:30:18;;;;;;;0.10;0.10;;;17.50;99.90;;;;;;5010607;28;20030;-75
2021/08/19 07:32:45;;;;;;;0.38;0.25;;;17.70;99.90;;;;;;5009934;28;20551;-76
2021/08/19 07:35:11;;;;;;;0.20;0.20;;;17.80;99.90;;;;;;5010221;28;20022;-76
2021/08/19 07:37:44;;;;;;;0.88;0.52;;;17.80;99.90;;;;;;5010244;28;20088;-76
2021/08/19 07:40:11;;;;;;;0.10;0.10;;;17.90;99.90;;;;;;4991587;28;20030;-76
2021/08/19 07:42:38;;;;;;;3.20;2.05;;;17.90;99.90;;;;;;5011677;28;20069;-75
2021/08/19 07:45:05;;;;;;;0.10;0.10;;;18.00;99.90;;;;;;5011879;28;20022;-75
2021/08/19 07:47:30;;;;;;;0.10;0.10;;;18.20;99.90;;;;;;4994043;28;20482;-73
2021/08/19 07:49:59;;;;;;;0.43;0.43;;;18.20;99.90;;;;;;5009718;28;20088;-73
2021/08/19 07:52:24;;;;;;;0.15;0.15;;;18.20;99.90;;;;;;5011941;28;20042;-73
2021/08/19 07:54:50;;;;;;;0.10;0.10;;;18.10;99.90;;;;;;5009833;28;20033;-73
2021/08/19 07:57:16;;;;;;;1.92;1.27;;;18.30;99.90;;;;;;5011467;28;20421;-73
2021/08/19 07:59:42;;;;;;;0.20;0.20;;;18.40;99.90;;;;;;5010989;28;20141;-73
2021/08/19 08:02:08;;;;;;;0.10;0.10;;;18.60;99.90;;;;;;5012029;28;20029;-73
2021/08/19 08:04:34;;;;;;;0.10;0.10;;;18.70;99.90;;;;;;5011245;28;20410;-73
2021/08/19 08:07:00;;;;;;;0.10;0.10;;;18.60;99.90;;;;;;5011774;28;20421;-73
2021/08/19 08:09:26;;;;;;;0.25;0.25;;;18.80;99.90;;;;;;5011169;28;20030;-73
2021/08/19 08:11:52;;;;;;;0.40;0.40;;;18.80;99.90;;;;;;5010063;28;20389;-72
2021/08/19 08:14:18;;;;;;;2.30;1.30;;;18.80;99.90;;;;;;5009166;28;20049;-73
2021/08/19 08:16:44;;;;;;;0.10;0.10;;;18.60;99.90;;;;;;5009673;28;20045;-73
2021/08/19 08:19:10;;;;;;;0.38;0.38;;;18.80;99.90;;;;;;5009139;28;20022;-73
2021/08/19 08:21:38;;;;;;;3.50;1.75;;;18.90;99.90;;;;;;5011085;28;20033;-74
2021/08/19 08:24:04;;;;;;;0.28;0.28;;;19.00;99.90;;;;;;5008182;28;20076;-73
2021/08/19 08:26:30;;;;;;;0.10;0.10;;;18.70;99.90;;;;;;5011038;28;20034;-73
2021/08/19 08:28:57;;;;;;;0.10;0.10;;;18.70;99.90;;;;;;5010171;28;20022;-73
2021/08/19 08:31:23;;;;;;;0.10;0.10;;;18.70;99.90;;;;;;5009631;28;20037;-73
2021/08/19 08:33:51;;;;;;;0.10;0.10;;;18.80;99.90;;;;;;5008967;28;20052;-72
2021/08/19 08:36:17;;;;;;;0.10;0.10;;;19.00;99.90;;;;;;5010313;28;20084;-74
2021/08/19 08:38:44;;;;;;;1.45;1.35;;;19.10;99.90;;;;;;5009063;28;20030;-73
2021/08/19 08:41:11;;;;;;;0.10;0.10;;;19.10;99.90;;;;;;5014724;28;20482;-73
2021/08/19 08:43:37;;;;;;;0.30;0.30;;;19.20;99.90;;;;;;5014863;28;20021;-73
2021/08/19 08:46:07;;;;;;;0.10;0.10;;;19.20;99.90;;;;;;4996486;28;20026;-72
2021/08/19 08:48:33;;;;;;;0.30;0.30;;;19.20;99.90;;;;;;5014481;28;20092;-72
2021/08/19 08:50:59;;;;;;;1.80;0.88;;;19.20;99.90;;;;;;5013940;28;20038;-72
2021/08/19 08:53:26;;;;;;;1.55;1.00;;;19.20;99.90;;;;;;5014511;28;20088;-72
2021/08/19 08:55:52;;;;;;;0.40;0.40;;;19.10;99.90;;;;;;5013881;28;20057;-73
2021/08/19 08:58:18;;;;;;;0.10;0.10;;;19.10;99.90;;;;;;5012968;28;20107;-72
2021/08/19 09:00:46;;;;;;;0.43;0.28;;;19.00;99.90;;;;;;5012483;28;20022;-73
2021/08/19 09:03:14;;;;;;;0.80;0.63;;;19.10;99.90;;;;;;5013232;28;20071;-75
2021/08/19 09:05:42;;;;;;;0.10;0.10;;;19.10;99.90;;;;;;5013869;28;20022;-74
2021/08/19 09:08:15;;;;;;;0.10;0.10;;;19.30;99.90;;;;;;5012679;28;20386;-73
2021/08/19 09:10:42;;;;;;;0.43;0.43;;;19.40;99.90;;;;;;4995943;28;20018;-75
2021/08/19 09:13:15;;;;;;;0.10;0.10;;;19.40;99.90;;;;;;5013314;28;20076;-75
2021/08/19 09:15:45;;;;;;;0.38;0.38;;;19.60;99.90;;;;;;5012426;28;20079;-76
2021/08/19 09:18:12;;;;;;;1.13;0.75;;;19.60;99.90;;;;;;5014087;28;20022;-71
2021/08/19 09:20:39;;;;;;;0.32;0.32;;;19.80;99.90;;;;;;5014188;28;20049;-74
2021/08/19 09:23:10;;;;;;;0.20;0.20;;;19.80;99.90;;;;;;5012502;28;20485;-74
2021/08/19 09:25:38;;;;;;;1.08;0.80;;;19.40;99.90;;;;;;5016394;28;20014;-74
2021/08/19 09:28:25;;;;;;;0.10;0.10;;;19.60;99.90;;;;;;5008977;28;20105;-74
2021/08/19 09:30:53;;;;;;;0.00;0.00;;;19.50;99.90;;;;;;5012846;28;20026;-74
2021/08/19 09:33:22;;;;;;;0.10;0.10;;;19.70;99.90;;;;;;5008448;28;20037;-74
2021/08/19 09:35:49;;;;;;;1.75;0.52;;;19.70;99.90;;;;;;5012013;28;20041;-75
2021/08/19 09:38:17;;;;;;;0.10;0.10;;;19.90;99.90;;;;;;5015524;28;20100;-75
2021/08/19 09:41:03;;;;;;;0.50;0.50;;;19.90;99.90;;;;;;5011773;28;20478;-75
2021/08/19 09:43:38;;;;;;;1.17;1.08;;;19.90;99.90;;;;;;5013879;28;20037;-75
2021/08/19 09:46:05;;;;;;;0.10;0.10;;;20.00;99.90;;;;;;5011669;28;20029;-74
2021/08/19 09:48:30;;;;;;;0.10;0.10;;;20.30;99.90;;;;;;5013388;28;20029;-75
2021/08/19 09:51:15;;;;;;;0.50;0.50;;;20.30;99.90;;;;;;5010938;28;20044;-75
2021/08/19 09:53:50;;;;;;;0.10;0.10;;;20.20;99.90;;;;;;5013330;28;20048;-75
2021/08/19 09:56:30;;;;;;;0.10;0.10;;;20.20;99.90;;;;;;5012831;28;20022;-76
2021/08/19 09:59:18;;;;;;;0.10;0.10;;;20.30;99.90;;;;;;5012475;28;20014;-76
2021/08/19 10:01:45;;;;;;;1.23;0.73;;;20.50;99.90;;;;;;5011654;28;20037;-74
2021/08/19 10:04:11;;;;;;;0.10;0.10;;;20.40;99.90;;;;;;5011913;28;20022;-74
2021/08/19 10:06:36;;;;;;;0.10;0.10;;;20.30;99.90;;;;;;5013021;28;20018;-74
2021/08/19 10:09:02;;;;;;;0.50;0.50;;;20.30;99.90;;;;;;5011094;28;20108;-74
2021/08/19 10:11:28;;;;;;;0.15;0.15;;;20.00;99.90;;;;;;5011844;28;20030;-74
2021/08/19 10:13:54;;;;;;;0.40;0.40;;;19.80;99.90;;;;;;5012111;28;20030;-74
2021/08/19 10:16:21;;;;;;;4.47;0.35;;;19.80;99.90;;;;;;5011253;28;20501;-74
2021/08/19 10:18:49;;;;;;;0.95;0.95;;;19.70;99.90;;;;;;5011816;28;20028;-74
2021/08/19 10:21:17;;;;;;;0.50;0.50;;;19.80;99.90;;;;;;5011199;28;20478;-74
2021/08/19 10:23:45;;;;;;;0.40;0.40;;;19.70;99.90;;;;;;5013060;28;20089;-74
2021/08/19 10:26:17;;;;;;;0.22;0.22;;;19.60;99.90;;;;;;5011368;28;20025;-73
2021/08/19 10:28:56;;;;;;;0.20;0.20;;;19.60;99.90;;;;;;5010765;28;20030;-73
2021/08/19 10:31:43;;;;;;;0.10;0.10;;;19.70;99.90;;;;;;5012430;28;20072;-74
2021/08/19 10:34:11;;;;;;;0.13;0.13;;;19.90;99.90;;;;;;5011702;28;20501;-74
2021/08/19 10:36:44;;;;;;;0.10;0.10;;;20.00;99.90;;;;;;5012677;28;20113;-74
2021/08/19 10:39:19;;;;;;;0.10;0.10;;;20.30;99.90;;;;;;5012809;28;20026;-74
2021/08/19 10:41:50;;;;;;;0.65;0.30;;;20.40;99.90;;;;;;5008535;28;20398;-73
2021/08/19 10:44:16;;;;;;;0.10;0.10;;;20.30;99.90;;;;;;4994874;28;20046;-74
2021/08/19 10:46:45;;;;;;;0.10;0.10;;;20.00;99.90;;;;;;5012203;28;20088;-74
2021/08/19 10:49:32;;;;;;;0.30;0.30;;;20.20;99.90;;;;;;5010889;28;20038;-74
2021/08/19 10:52:07;;;;;;;0.82;0.82;;;20.30;99.90;;;;;;5010884;28;20049;-74
2021/08/19 10:54:39;;;;;;;0.98;0.93;;;20.20;99.90;;;;;;5011699;28;20030;-74
2021/08/19 10:57:24;;;;;;;;;;;20.20;99.90;;;;;;5012305;28;20049;-74
2021/08/19 11:00:05;;;;;;;0.10;0.10;;;20.20;99.90;;;;;;5008525;28;19936;-75
2021/08/19 11:02:41;;;;;;;0.10;0.10;;;20.40;99.90;;;;;;4993109;28;20026;-74
2021/08/19 11:05:10;;;;;;;0.93;0.68;;;20.30;99.90;;;;;;5012196;28;20117;-74
2021/08/19 11:07:46;;;;;;;0.20;0.20;;;20.50;99.90;;;;;;5011419;28;20126;-74
2021/08/19 11:10:19;;;;;;;0.20;0.20;;;20.60;99.90;;;;;;5011989;28;20028;-74
2021/08/19 11:12:46;;;;;;;0.10;0.10;;;20.40;99.90;;;;;;5012280;28;20033;-74
2021/08/19 11:15:12;;;;;;;0.00;0.00;;;20.50;99.90;;;;;;5011641;28;20037;-74
2021/08/19 11:17:38;;;;;;;0.10;0.10;;;20.70;99.90;;;;;;5011673;28;20496;-73
2021/08/19 11:20:26;;;;;;;0.10;0.10;;;20.80;99.90;;;;;;5012189;28;20029;-73
2021/08/19 11:23:18;;;;;;;0.43;0.40;;;21.00;99.90;;;;;;5011603;28;20393;-74
2021/08/19 11:25:46;;;;;;;0.00;0.00;;;21.10;98.20;;;;;;5008663;28;20042;-74
2021/08/19 11:28:14;;;;;;;0.10;0.10;;;21.10;98.10;;;;;;5009600;28;20021;-75
2021/08/19 11:30:44;;;;;;;0.10;0.10;;;21.00;97.30;;;;;;5011781;28;20026;-74
2021/08/19 11:33:16;;;;;;;0.52;0.25;;;21.20;98.00;;;;;;5010245;28;20032;-75
2021/08/19 11:35:45;;;;;;;0.17;0.17;;;21.10;97.30;;;;;;5010661;28;20032;-74
2021/08/19 11:38:12;;;;;;;9.45;2.83;;;21.30;97.40;;;;;;5010921;28;20026;-74
2021/08/19 11:40:40;;;;;;;0.35;0.35;;;21.40;96.60;;;;;;4993248;28;20049;-73
2021/08/19 11:43:28;;;;;;;0.10;0.10;;;21.40;97.10;;;;;;5009875;28;20056;-75
2021/08/19 11:46:04;;;;;;;0.20;0.20;;;21.80;96.10;;;;;;5010448;28;20053;-74
2021/08/19 11:48:31;;;;;;;0.20;0.20;;;22.20;94.50;;;;;;5010639;28;20034;-73
2021/08/19 11:50:59;;;;;;;0.10;0.10;;;22.40;92.80;;;;;;5009840;28;20033;-74
2021/08/19 11:53:26;;;;;;;0.10;0.10;;;22.60;91.10;;;;;;5009371;28;20026;-74
2021/08/19 11:55:52;;;;;;;0.22;0.22;;;22.60;91.60;;;;;;5010001;28;20041;-74
2021/08/19 11:58:22;;;;;;;0.10;0.10;;;22.50;91.00;;;;;;5010791;28;20030;-74
2021/08/19 12:01:05;;;;;;;0.10;0.10;;;22.50;91.40;;;;;;5010284;28;20025;-75
2021/08/19 12:03:39;;;;;;;0.40;0.40;;;22.80;90.20;;;;;;5008098;28;20053;-74
2021/08/19 12:06:13;;;;;;;0.10;0.10;;;22.90;88.30;;;;;;5009249;28;20022;-74
2021/08/19 12:08:52;;;;;;;0.10;0.10;;;22.90;89.00;;;;;;5009335;28;20018;-74
2021/08/19 12:11:26;;;;;;;0.25;0.25;;;23.10;89.10;;;;;;5011389;28;20029;-74
2021/08/19 12:13:53;;;;;;;1.85;0.65;;;23.70;86.20;;;;;;5010195;28;20071;-74
2021/08/19 12:16:27;;;;;;;0.40;0.40;;;23.70;84.20;;;;;;5011163;28;20026;-74
2021/08/19 12:19:13;;;;;;;0.70;0.20;;;24.00;82.60;;;;;;5009132;28;20018;-75
2021/08/19 12:21:48;;;;;;;3.42;0.75;;;23.30;82.00;;;;;;5011157;28;20026;-74
2021/08/19 12:24:17;;;;;;;0.32;0.15;;;22.80;84.10;;;;;;5009168;28;20108;-74
2021/08/19 12:27:02;;;;;;;0.10;0.10;;;23.00;83.20;;;;;;5011226;28;20037;-73
2021/08/19 12:29:29;;;;;;;0.95;0.80;;;23.20;81.40;;;;;;5010586;28;20033;-75
2021/08/19 12:31:57;;;;;;;0.30;0.30;;;23.60;81.20;;;;;;5009586;28;20018;-75
2021/08/19 12:34:24;;;;;;;0.05;0.05;;;23.80;80.70;;;;;;5009788;28;20029;-74
2021/08/19 12:36:50;;;;;;;0.40;0.40;;;23.70;79.60;;;;;;5008202;28;20553;-75
2021/08/19 12:39:17;;;;;;;0.30;0.30;;;23.30;79.00;;;;;;5010192;28;20193;-75
2021/08/19 12:41:45;;;;;;;0.00;0.00;;;23.10;81.70;;;;;;5009348;28;20080;-75
2021/08/19 12:44:12;;;;;;;1.17;1.13;;;23.30;82.20;;;;;;5009000;28;20018;-75
2021/08/19 12:46:43;;;;;;;0.05;0.05;;;23.30;80.50;;;;;;5004822;28;20022;-73
2021/08/19 12:49:39;;;;;;;0.80;0.38;;;23.20;80.40;;;;;;5009677;28;20030;-74
2021/08/19 12:52:13;;;;;;;0.10;0.10;;;22.90;80.30;;;;;;5010386;28;20486;-74